Time;durP1;ratioP1;P1;durP2;ratioP2;P2;SDS_P1;SDS_P2;PMS_P1;PMS_P2;Temp;Humidity;BMP_temperature;BMP_pressure;BME280_temperature;BME280_humidity;BME280_pressure;Samples;Min_cycle;Max_cycle;Signal;HPM_P1;HPM_P2
2022/03/03 00:00:10;;;;;;;;;;;17.30;39.00;;;;;;5065199;28;42975;-75
2022/03/03 00:02:36;;;;;;;;;;;17.40;39.00;;;;;;5064655;28;44612;-74
2022/03/03 00:05:02;;;;;;;;;;;17.40;39.10;;;;;;5065246;28;42970;-76
2022/03/03 00:07:27;;;;;;;;;;;17.30;38.70;;;;;;5065149;28;43536;-75
2022/03/03 00:09:53;;;;;;;;;;;17.40;38.80;;;;;;5064848;28;42762;-75
2022/03/03 00:12:19;;;;;;;;;;;17.40;38.70;;;;;;5065160;28;42874;-75
2022/03/03 00:14:45;;;;;;;;;;;17.40;38.80;;;;;;5065089;28;42811;-80
2022/03/03 00:17:11;;;;;;;;;;;17.30;38.70;;;;;;5064444;28;43691;-77
2022/03/03 00:19:37;;;;;;;;;;;17.30;38.90;;;;;;5064955;28;43166;-76
2022/03/03 00:22:03;;;;;;;;;;;17.30;38.20;;;;;;5064213;28;43032;-75
2022/03/03 00:24:28;;;;;;;;;;;17.30;38.80;;;;;;5064545;28;42984;-76
2022/03/03 00:26:54;;;;;;;;;;;17.40;38.80;;;;;;5064742;28;43396;-75
2022/03/03 00:29:19;;;;;;;;;;;17.40;38.80;;;;;;5065039;28;42927;-75
2022/03/03 00:31:45;;;;;;;;;;;17.40;38.70;;;;;;5064874;28;43427;-76
2022/03/03 00:34:10;;;;;;;;;;;17.30;38.20;;;;;;5062721;28;42926;-76
2022/03/03 00:36:36;;;;;;;;;;;17.40;38.20;;;;;;5064526;28;43049;-75
2022/03/03 00:39:03;;;;;;;;;;;17.40;38.80;;;;;;5065054;28;42948;-76
2022/03/03 00:41:28;;;;;;;;;;;17.40;38.70;;;;;;5065092;28;42884;-76
2022/03/03 00:43:54;;;;;;;;;;;17.40;38.80;;;;;;5064778;28;43027;-80
2022/03/03 00:46:19;;;;;;;;;;;17.40;38.80;;;;;;5064418;28;43045;-75
2022/03/03 00:48:45;;;;;;;;;;;17.40;38.80;;;;;;5064010;28;42934;-75
2022/03/03 00:51:10;;;;;;;;;;;17.40;38.30;;;;;;5064531;28;42956;-76
2022/03/03 00:53:37;;;;;;;;;;;17.40;38.70;;;;;;5062656;28;42993;-75
2022/03/03 00:56:03;;;;;;;;;;;17.40;38.70;;;;;;5064203;28;43539;-82
2022/03/03 00:58:28;;;;;;;;;;;17.40;38.80;;;;;;5063981;28;43027;-82
2022/03/03 01:00:54;;;;;;;;;;;17.40;38.90;;;;;;5063642;28;43000;-83
2022/03/03 01:03:20;;;;;;;;;;;17.40;39.00;;;;;;5064073;28;43335;-75
2022/03/03 01:05:46;;;;;;;;;;;17.40;38.80;;;;;;5064043;28;43507;-75
2022/03/03 01:08:12;;;;;;;;;;;17.40;39.10;;;;;;5064297;28;42963;-82
2022/03/03 01:10:39;;;;;;;;;;;17.40;39.00;;;;;;5064034;28;43406;-83
2022/03/03 01:13:05;;;;;;;;;;;19.60;40.50;;;;;;5064159;28;42825;-82
2022/03/03 01:15:30;;;;;;;;;;;17.40;39.10;;;;;;5064324;28;43690;-83
2022/03/03 01:17:56;;;;;;;;;;;17.30;38.80;;;;;;5064374;28;42970;-83
2022/03/03 01:20:21;;;;;;;;;;;17.40;39.00;;;;;;5064007;28;42820;-82
2022/03/03 01:22:47;;;;;;;;;;;17.30;39.40;;;;;;5065791;28;42973;-80
2022/03/03 01:25:13;;;;;;;;;;;17.30;39.00;;;;;;5067068;28;43485;-83
2022/03/03 01:27:39;;;;;;;;;;;17.40;39.20;;;;;;5067049;28;43019;-84
2022/03/03 01:30:07;;;;;;;;;;;17.30;39.00;;;;;;5067078;28;43630;-83
2022/03/03 01:32:33;;;;;;;;;;;17.40;39.00;;;;;;5066820;28;43028;-83
2022/03/03 01:34:58;;;;;;;;;;;17.30;39.30;;;;;;5067029;28;43417;-83
2022/03/03 01:37:24;;;;;;;;;;;17.30;39.30;;;;;;5066576;28;42896;-83
2022/03/03 01:39:49;;;;;;;;;;;17.30;39.30;;;;;;5066848;28;42988;-82
2022/03/03 01:42:16;;;;;;;;;;;17.30;39.40;;;;;;5066888;28;42944;-83
2022/03/03 01:44:45;;;;;;;;;;;17.30;39.40;;;;;;5067492;28;42899;-83
2022/03/03 01:47:24;;;;;;;;;;;17.30;39.50;;;;;;5067653;28;42882;-83
2022/03/03 01:49:51;;;;;;;;;;;17.30;39.50;;;;;;5067289;28;43993;-82
2022/03/03 01:52:18;;;;;;;;;;;17.30;39.40;;;;;;5066735;28;42751;-82
2022/03/03 01:54:43;;;;;;;;;;;17.30;39.40;;;;;;5067018;28;43722;-81
2022/03/03 01:57:09;;;;;;;;;;;17.30;39.50;;;;;;5067358;28;42859;-82
2022/03/03 01:59:36;;;;;;;;;;;17.30;39.40;;;;;;5067219;28;42978;-83
2022/03/03 02:02:02;;;;;;;;;;;17.30;39.30;;;;;;5067001;28;43084;-83
2022/03/03 02:04:28;;;;;;;;;;;17.30;39.50;;;;;;5066508;28;43449;-83
2022/03/03 02:06:53;;;;;;;;;;;17.30;39.40;;;;;;5067266;28;42926;-76
2022/03/03 02:09:19;;;;;;;;;;;17.30;39.60;;;;;;5067481;28;42997;-74
2022/03/03 02:11:45;;;;;;;;;;;17.30;39.50;;;;;;5067247;28;42967;-77
2022/03/03 02:14:10;;;;;;;;;;;17.30;38.90;;;;;;5067132;28;42871;-76
2022/03/03 02:16:36;;;;;;;;;;;17.30;39.50;;;;;;5066662;28;42961;-74
2022/03/03 02:19:01;;;;;;;;;;;17.30;39.10;;;;;;5065823;28;42933;-74
2022/03/03 02:21:27;;;;;;;;;;;17.30;39.60;;;;;;5061160;28;43048;-76
2022/03/03 02:23:52;;;;;;;;;;;17.20;39.60;;;;;;5045124;28;43433;-75
2022/03/03 02:26:19;;;;;;;;;;;17.30;39.10;;;;;;5046723;28;43032;-75
2022/03/03 02:28:49;;;;;;;;;;;17.30;39.50;;;;;;5046503;28;43903;-74
2022/03/03 02:31:14;;;;;;;;;;;17.20;39.30;;;;;;5046457;28;42928;-74
2022/03/03 02:33:40;;;;;;;;;;;17.30;39.50;;;;;;5061991;28;43100;-74
2022/03/03 02:36:20;;;;;;;;;;;17.30;39.50;;;;;;5046659;28;42919;-74
2022/03/03 02:38:46;;;;;;;;;;;17.30;39.40;;;;;;5046345;28;43034;-74
2022/03/03 02:41:12;;;;;;;;;;;17.30;39.50;;;;;;5046239;28;43003;-74
2022/03/03 02:43:37;;;;;;;;;;;17.30;39.40;;;;;;5046866;28;42789;-74
2022/03/03 02:46:04;;;;;;;;;;;17.30;39.50;;;;;;5045954;28;43011;-74
2022/03/03 02:48:30;;;;;;;;;;;17.20;38.90;;;;;;5045786;28;43561;-74
2022/03/03 02:50:56;;;;;;;;;;;17.30;39.50;;;;;;5046352;28;42937;-74
2022/03/03 02:53:21;;;;;;;;;;;17.20;39.60;;;;;;5045833;28;42967;-74
2022/03/03 02:55:47;;;;;;;;;;;17.30;39.60;;;;;;5046098;28;42961;-74
2022/03/03 02:58:12;;;;;;;;;;;17.20;39.40;;;;;;5045655;28;42930;-74
2022/03/03 03:00:43;;;;;;;;;;;17.30;39.60;;;;;;5045910;28;43044;-74
2022/03/03 03:03:09;;;;;;;;;;;17.30;39.60;;;;;;5045970;28;43350;-73
2022/03/03 03:05:35;;;;;;;;;;;17.30;39.60;;;;;;5046061;28;43034;-73
2022/03/03 03:08:01;;;;;;;;;;;17.30;39.60;;;;;;5045818;28;43488;-73
2022/03/03 03:10:26;;;;;;;;;;;17.30;39.60;;;;;;5046300;28;42922;-74
2022/03/03 03:12:52;;;;;;;;;;;17.30;39.50;;;;;;5045483;28;42906;-74
2022/03/03 03:15:17;;;;;;;;;;;17.30;39.50;;;;;;5045025;28;42993;-73
2022/03/03 03:17:43;;;;;;;;;;;17.30;39.20;;;;;;5044767;28;43189;-73
2022/03/03 03:20:09;;;;;;;;;;;17.30;39.60;;;;;;5045216;28;42965;-74
2022/03/03 03:22:35;;;;;;;;;;;17.30;39.70;;;;;;5045576;28;42953;-73
2022/03/03 03:25:01;;;;;;;;;;;17.30;39.70;;;;;;5045414;28;42865;-73
2022/03/03 03:27:26;;;;;;;;;;;17.30;39.60;;;;;;5045695;28;43614;-74
2022/03/03 03:29:52;;;;;;;;;;;17.30;39.60;;;;;;5045870;28;43024;-74
2022/03/03 03:32:17;;;;;;;;;;;17.30;39.10;;;;;;5045700;28;42887;-73
2022/03/03 03:34:43;;;;;;;;;;;17.30;39.70;;;;;;5045658;28;42938;-73
2022/03/03 03:37:08;;;;;;;;;;;17.30;39.60;;;;;;5045026;28;43517;-73
2022/03/03 03:39:34;;;;;;;;;;;17.30;39.60;;;;;;5045618;28;42701;-74
2022/03/03 03:42:00;;;;;;;;;;;17.30;39.80;;;;;;5045082;28;43485;-74
2022/03/03 03:44:25;;;;;;;;;;;17.30;39.60;;;;;;5043992;28;43043;-73
2022/03/03 03:46:51;;;;;;;;;;;17.30;39.80;;;;;;5045315;28;43040;-73
2022/03/03 03:49:16;;;;;;;;;;;17.30;39.60;;;;;;5045267;28;43165;-73
2022/03/03 03:51:42;;;;;;;;;;;17.30;39.70;;;;;;5045389;28;42861;-73
2022/03/03 03:54:07;;;;;;;;;;;17.30;39.70;;;;;;5044943;28;43032;-74
2022/03/03 03:56:33;;;;;;;;;;;17.30;39.70;;;;;;5045312;28;42975;-76
2022/03/03 03:58:59;;;;;;;;;;;17.30;39.90;;;;;;5045135;28;43001;-74
2022/03/03 04:01:26;;;;;;;;;;;17.20;39.60;;;;;;5044882;28;42957;-74
2022/03/03 04:03:52;;;;;;;;;;;17.30;39.70;;;;;;5044666;28;43138;-73
2022/03/03 04:06:18;;;;;;;;;;;17.30;39.70;;;;;;5044931;28;43923;-74
2022/03/03 04:08:44;;;;;;;;;;;17.30;39.70;;;;;;5045140;28;42938;-74
2022/03/03 04:11:09;;;;;;;;;;;17.30;39.70;;;;;;5044968;28;44681;-74
2022/03/03 04:13:35;;;;;;;;;;;17.30;39.70;;;;;;5044787;28;42918;-74
2022/03/03 04:16:00;;;;;;;;;;;17.30;39.80;;;;;;5044667;28;42981;-73
2022/03/03 04:18:26;;;;;;;;;;;17.30;39.70;;;;;;5058115;28;42934;-74
2022/03/03 04:20:51;;;;;;;;;;;17.30;39.70;;;;;;5064678;28;43431;-75
2022/03/03 04:23:19;;;;;;;;;;;17.30;39.70;;;;;;5064652;28;43010;-75
2022/03/03 04:25:44;;;;;;;;;;;17.30;39.70;;;;;;5064166;28;44691;-75
2022/03/03 04:28:10;;;;;;;;;;;17.30;39.60;;;;;;5064988;28;42964;-75
2022/03/03 04:30:36;;;;;;;;;;;17.30;39.80;;;;;;5064919;28;43430;-75
2022/03/03 04:33:03;;;;;;;;;;;17.30;39.80;;;;;;5064826;28;42876;-75
2022/03/03 04:35:31;;;;;;;;;;;17.30;39.60;;;;;;5064709;28;42967;-75
2022/03/03 04:37:57;;;;;;;;;;;17.30;39.70;;;;;;5063563;28;42844;-75
2022/03/03 04:40:22;;;;;;;;;;;17.30;39.80;;;;;;5064535;28;43463;-75
2022/03/03 04:42:49;;;;;;;;;;;17.30;39.80;;;;;;5064935;28;43147;-75
2022/03/03 04:45:15;;;;;;;;;;;17.30;39.30;;;;;;5063264;28;43974;-75
2022/03/03 04:47:41;;;;;;;;;;;17.30;39.80;;;;;;5064700;28;42905;-76
2022/03/03 04:50:07;;;;;;;;;;;17.30;39.30;;;;;;5064423;28;43366;-75
2022/03/03 04:52:33;;;;;;;;;;;17.30;39.80;;;;;;5063541;28;42973;-75
2022/03/03 04:54:59;;;;;;;;;;;17.30;39.70;;;;;;5064378;28;43705;-79
2022/03/03 04:57:25;;;;;;;;;;;17.30;39.30;;;;;;5067430;28;42923;-74
2022/03/03 04:59:50;;;;;;;;;;;17.30;39.90;;;;;;5059007;28;43042;-75
2022/03/03 05:02:16;;;;;;;;;;;17.20;39.30;;;;;;5067966;28;42892;-78
2022/03/03 05:04:41;;;;;;;;;;;17.30;39.90;;;;;;5067568;28;43032;-77
2022/03/03 05:07:07;;;;;;;;;;;17.30;40.00;;;;;;5067617;28;43132;-76
2022/03/03 05:09:32;;;;;;;;;;;17.30;39.80;;;;;;5067248;28;42873;-76
2022/03/03 05:11:59;;;;;;;;;;;17.30;40.30;;;;;;5047537;28;42879;-78
2022/03/03 05:14:25;;;;;;;;;;;17.30;41.60;;;;;;5064265;28;43486;-78
2022/03/03 05:16:50;;;;;;;;;;;17.30;41.50;;;;;;5066717;28;42997;-76
2022/03/03 05:19:16;;;;;;;;;;;17.30;41.00;;;;;;5066875;28;42935;-77
2022/03/03 05:21:41;;;;;;;;;;;17.30;40.80;;;;;;5066435;28;42889;-76
2022/03/03 05:24:07;;;;;;;;;;;17.30;40.80;;;;;;5067518;28;43071;-85
2022/03/03 05:26:32;;;;;;;;;;;17.30;40.80;;;;;;5073813;28;42932;-83
2022/03/03 05:28:58;;;;;;;;;;;17.30;41.00;;;;;;5071390;28;43844;-76
2022/03/03 05:31:24;;;;;;;;;;;15.50;40.10;;;;;;5066347;28;43232;-75
2022/03/03 05:33:49;;;;;;;;;;;17.30;41.00;;;;;;5066378;28;42985;-77
2022/03/03 05:36:15;;;;;;;;;;;17.30;41.20;;;;;;5082147;28;43005;-82
2022/03/03 05:38:41;;;;;;;;;;;17.30;41.00;;;;;;5066561;28;42977;-85
2022/03/03 05:41:06;;;;;;;;;;;17.30;41.00;;;;;;5066269;28;42976;-86
2022/03/03 05:43:33;;;;;;;;;;;17.30;40.50;;;;;;5066386;28;44316;-86
2022/03/03 05:45:58;;;;;;;;;;;17.30;40.90;;;;;;5064345;28;43091;-87
2022/03/03 05:48:25;;;;;;;;;;;17.30;41.00;;;;;;5065315;28;44075;-87
2022/03/03 05:50:52;;;;;;;;;;;17.30;41.00;;;;;;5066761;28;43022;-87
2022/03/03 05:53:18;;;;;;;;;;;17.30;41.10;;;;;;5059269;28;43493;-85
2022/03/03 05:55:45;;;;;;;;;;;16.60;40.70;;;;;;5067984;28;42957;-84
2022/03/03 05:58:11;;;;;;;;;;;17.10;40.50;;;;;;5067053;28;42954;-79
2022/03/03 06:00:37;;;;;;;;;;;17.30;41.00;;;;;;5066308;28;42863;-84
2022/03/03 06:03:03;;;;;;;;;;;17.30;41.10;;;;;;5064267;28;42945;-85
2022/03/03 06:05:29;;;;;;;;;;;17.30;41.20;;;;;;5065679;28;42764;-86
2022/03/03 06:08:01;;;;;;;;;;;17.30;41.10;;;;;;5062415;28;43081;-87
2022/03/03 06:10:31;;;;;;;;;;;17.30;41.00;;;;;;5066314;28;43046;-86
2022/03/03 06:13:15;;;;;;;;;;;17.30;41.10;;;;;;5062047;28;44057;-87
2022/03/03 06:15:42;;;;;;;;;;;17.30;41.10;;;;;;5064153;28;43017;-87
2022/03/03 06:18:08;;;;;;;;;;;17.30;41.10;;;;;;5065406;28;44454;-85
2022/03/03 06:20:35;;;;;;;;;;;17.30;41.20;;;;;;5063808;28;43100;-86
2022/03/03 06:23:01;;;;;;;;;;;17.30;41.40;;;;;;5064687;28;43047;-84
2022/03/03 06:25:26;;;;;;;;;;;17.30;42.30;;;;;;5064196;28;43025;-77
2022/03/03 06:27:52;;;;;;;;;;;17.20;41.00;;;;;;5062795;28;43394;-73
2022/03/03 06:30:18;;;;;;;;;;;17.30;41.20;;;;;;5065887;28;42939;-74
2022/03/03 06:32:44;;;;;;;;;;;16.90;38.70;;;;;;5066187;28;42956;-76
2022/03/03 06:35:09;;;;;;;;;;;15.90;38.10;;;;;;5065811;28;42943;-74
2022/03/03 06:37:35;;;;;;;;;;;15.70;37.60;;;;;;5066068;28;43766;-74
2022/03/03 06:40:00;;;;;;;;;;;15.10;37.20;;;;;;5066437;28;43654;-75
2022/03/03 06:42:26;;;;;;;;;;;14.90;36.80;;;;;;5065758;28;42953;-78
2022/03/03 06:44:53;;;;;;;;;;;14.70;36.40;;;;;;5066457;28;43105;-78
2022/03/03 06:47:20;;;;;;;;;;;14.60;36.10;;;;;;5065631;28;43884;-77
2022/03/03 06:49:47;;;;;;;;;;;14.80;35.90;;;;;;5065808;28;42923;-76
2022/03/03 06:52:14;;;;;;;;;;;14.60;35.40;;;;;;5065538;28;43013;-75
2022/03/03 06:54:42;;;;;;;;;;;14.90;36.10;;;;;;5065470;28;42912;-75
2022/03/03 06:57:08;;;;;;;;;;;15.10;35.20;;;;;;5065961;28;43357;-74
2022/03/03 06:59:37;;;;;;;;;;;15.10;35.50;;;;;;5066370;28;42838;-74
2022/03/03 07:02:03;;;;;;;;;;;14.60;35.40;;;;;;5065047;28;43777;-74
2022/03/03 07:04:29;;;;;;;;;;;14.20;36.40;;;;;;5062828;28;42891;-74
2022/03/03 07:06:55;;;;;;;;;;;14.20;37.00;;;;;;5064206;28;42999;-74
2022/03/03 07:09:21;;;;;;;;;;;14.10;37.10;;;;;;5064481;28;43198;-75
2022/03/03 07:11:48;;;;;;;;;;;14.40;36.90;;;;;;5064346;28;42942;-75
2022/03/03 07:14:14;;;;;;;;;;;14.30;37.20;;;;;;5064044;28;42981;-75
2022/03/03 07:16:39;;;;;;;;;;;14.40;36.70;;;;;;5064492;28;43261;-77
2022/03/03 07:19:07;;;;;;;;;;;14.50;36.10;;;;;;5064017;28;43074;-80
2022/03/03 07:21:51;;;;;;;;;;;14.40;36.60;;;;;;5064958;28;43692;-77
2022/03/03 07:24:24;;;;;;;;;;;14.60;36.60;;;;;;5078961;28;43017;-76
2022/03/03 07:26:51;;;;;;;;;;;14.70;36.40;;;;;;5062899;28;42974;-77
2022/03/03 07:29:16;;;;;;;;;;;14.80;36.40;;;;;;5061522;28;43149;-77
2022/03/03 07:31:50;;;;;;;;;;;15.10;36.50;;;;;;5064132;28;42831;-77
2022/03/03 07:34:17;;;;;;;;;;;15.10;36.90;;;;;;5063886;28;43762;-77
2022/03/03 07:36:44;;;;;;;;;;;15.00;37.60;;;;;;5062074;28;44664;-78
2022/03/03 07:39:11;;;;;;;;;;;15.10;36.90;;;;;;5061937;28;42969;-76
2022/03/03 07:41:37;;;;;;;;;;;15.10;36.90;;;;;;5065810;28;42917;-78
2022/03/03 07:44:02;;;;;;;;;;;15.10;37.10;;;;;;5063025;28;42996;-79
2022/03/03 07:46:28;;;;;;;;;;;15.00;37.20;;;;;;5061910;28;43866;-72
2022/03/03 07:48:54;;;;;;;;;;;15.00;36.90;;;;;;5065153;28;43022;-76
2022/03/03 07:51:30;;;;;;;;;;;15.10;36.70;;;;;;5113578;27;43694;-75
2022/03/03 07:53:55;;;;;;;;;;;14.90;37.30;;;;;;5112894;27;43013;-76
2022/03/03 07:56:26;;;;;;;;;;;15.00;37.50;;;;;;5112753;27;42930;-76
2022/03/03 07:58:57;;;;;;;;;;;15.10;37.00;;;;;;5108970;27;43571;-77
2022/03/03 08:01:24;;;;;;;;;;;15.10;37.30;;;;;;5108516;27;42944;-76
2022/03/03 08:03:50;;;;;;;;;;;14.90;37.40;;;;;;5112102;27;42979;-74
2022/03/03 08:06:16;;;;;;;;;;;14.80;37.50;;;;;;5112792;27;43131;-74
2022/03/03 08:08:42;;;;;;;;;;;14.80;37.50;;;;;;5110927;27;43082;-77
2022/03/03 08:11:08;;;;;;;;;;;14.90;37.50;;;;;;5113949;27;44132;-73
2022/03/03 08:13:35;;;;;;;;;;;14.80;37.70;;;;;;5109827;27;43091;-74
2022/03/03 08:16:01;;;;;;;;;;;14.70;37.70;;;;;;5105134;27;42930;-77
2022/03/03 08:18:32;;;;;;;;;;;15.00;37.60;;;;;;5105869;27;42933;-75
2022/03/03 08:20:58;;;;;;;;;;;15.20;37.00;;;;;;5106576;27;42989;-78
2022/03/03 08:23:26;;;;;;;;;;;14.90;37.30;;;;;;5143654;27;43493;-76
2022/03/03 08:25:52;;;;;;;;;;;15.00;36.80;;;;;;5113045;27;42886;-75
2022/03/03 08:28:20;;;;;;;;;;;14.80;37.60;;;;;;5110916;27;43063;-77
2022/03/03 08:30:47;;;;;;;;;;;14.80;37.10;;;;;;5110264;27;42772;-75
2022/03/03 08:33:18;;;;;;;;;;;14.90;37.60;;;;;;5100495;27;43095;-75
2022/03/03 08:35:49;;;;;;;;;;;15.00;37.40;;;;;;5110550;27;43285;-75
2022/03/03 08:38:17;;;;;;;;;;;14.90;37.10;;;;;;5100835;27;42963;-74
2022/03/03 08:40:44;;;;;;;;;;;15.20;36.80;;;;;;5100890;27;43507;-76
2022/03/03 08:43:13;;;;;;;;;;;15.30;36.50;;;;;;5107214;27;43005;-74
2022/03/03 08:45:39;;;;;;;;;;;15.10;36.30;;;;;;5108891;27;42898;-74
2022/03/03 08:48:06;;;;;;;;;;;15.20;36.90;;;;;;5103720;27;43441;-75
2022/03/03 08:50:33;;;;;;;;;;;15.30;37.00;;;;;;5106755;27;43041;-74
2022/03/03 08:52:59;;;;;;;;;;;15.20;37.40;;;;;;5109834;27;43109;-74
2022/03/03 08:55:26;;;;;;;;;;;15.20;37.20;;;;;;5109978;27;43049;-74
2022/03/03 08:57:51;;;;;;;;;;;14.90;37.60;;;;;;5105505;27;44177;-74
2022/03/03 09:00:17;;;;;;;;;;;14.70;37.40;;;;;;5101238;27;42876;-73
2022/03/03 09:02:43;;;;;;;;;;;14.60;37.30;;;;;;5087774;27;43769;-73
2022/03/03 09:05:11;;;;;;;;;;;14.50;38.30;;;;;;5087461;27;43077;-74
2022/03/03 09:07:38;;;;;;;;;;;14.30;38.20;;;;;;5084922;28;44667;-74
2022/03/03 09:10:04;;;;;;;;;;;14.40;38.50;;;;;;5087052;28;42830;-73
2022/03/03 09:12:29;;;;;;;;;;;14.50;37.90;;;;;;5090532;27;43203;-74
2022/03/03 09:14:55;;;;;;;;;;;14.20;37.70;;;;;;5094422;27;42844;-74
2022/03/03 09:17:20;;;;;;;;;;;14.10;37.90;;;;;;5088318;27;43527;-74
2022/03/03 09:19:47;;;;;;;;;;;14.20;37.40;;;;;;5086856;28;42941;-74
2022/03/03 09:22:13;;;;;;;;;;;14.10;37.50;;;;;;5086938;27;44128;-74
2022/03/03 09:24:38;;;;;;;;;;;14.50;36.70;;;;;;5086727;28;42815;-73
2022/03/03 09:27:04;;;;;;;;;;;14.50;36.80;;;;;;5086314;28;43620;-74
2022/03/03 09:29:33;;;;;;;;;;;14.70;36.00;;;;;;5085571;27;43250;-75
2022/03/03 09:32:02;;;;;;;;;;;14.70;36.10;;;;;;5086406;28;43310;-74
2022/03/03 09:34:28;;;;;;;;;;;14.70;36.00;;;;;;5087093;28;42985;-75
2022/03/03 09:36:57;;;;;;;;;;;14.80;36.00;;;;;;5086441;28;42787;-75
2022/03/03 09:39:22;;;;;;;;;;;14.80;36.60;;;;;;5086083;28;42969;-75
2022/03/03 09:41:48;;;;;;;;;;;14.70;36.80;;;;;;5085668;28;43675;-76
2022/03/03 09:44:14;;;;;;;;;;;14.60;36.80;;;;;;5086103;28;42987;-75
2022/03/03 09:46:42;;;;;;;;;;;14.60;36.90;;;;;;5086329;27;43379;-75
2022/03/03 09:49:08;;;;;;;;;;;14.30;36.60;;;;;;5086482;27;42917;-76
2022/03/03 09:51:33;;;;;;;;;;;14.30;37.30;;;;;;5086706;28;42989;-75
2022/03/03 09:53:59;;;;;;;;;;;14.40;36.70;;;;;;5086299;28;42822;-76
2022/03/03 09:56:24;;;;;;;;;;;14.70;36.80;;;;;;5086310;28;43039;-76
2022/03/03 09:58:50;;;;;;;;;;;14.50;36.90;;;;;;5083972;28;43150;-74
2022/03/03 10:01:17;;;;;;;;;;;14.50;37.10;;;;;;5085917;28;42948;-75
2022/03/03 10:03:47;;;;;;;;;;;14.70;36.90;;;;;;5085025;28;43024;-75
2022/03/03 10:06:13;;;;;;;;;;;14.80;36.90;;;;;;5088089;27;43109;-75
2022/03/03 10:08:38;;;;;;;;;;;14.70;36.80;;;;;;5086793;27;44186;-75
2022/03/03 10:11:04;;;;;;;;;;;14.70;37.00;;;;;;5086115;28;42900;-73
2022/03/03 10:13:46;;;;;;;;;;;14.60;37.40;;;;;;5083429;27;42986;-75
2022/03/03 10:16:18;;;;;;;;;;;14.80;37.10;;;;;;5086042;28;43637;-74
2022/03/03 10:18:48;;;;;;;;;;;14.90;36.70;;;;;;5086231;28;42947;-74
2022/03/03 10:21:14;;;;;;;;;;;14.90;36.00;;;;;;5082451;27;44108;-74
2022/03/03 10:23:39;;;;;;;;;;;14.90;35.50;;;;;;5066619;28;43051;-74
2022/03/03 10:26:06;;;;;;;;;;;14.70;35.50;;;;;;5070149;28;43932;-75
2022/03/03 10:28:33;;;;;;;;;;;14.70;36.00;;;;;;5085541;28;42894;-76
2022/03/03 10:31:00;;;;;;;;;;;14.70;35.80;;;;;;5086433;28;42906;-73
2022/03/03 10:33:28;;;;;;;;;;;14.70;35.90;;;;;;5086097;27;43150;-74
2022/03/03 10:35:57;;;;;;;;;;;14.80;35.90;;;;;;5085548;28;43456;-73
2022/03/03 10:38:23;;;;;;;;;;;14.80;35.30;;;;;;5084831;28;42988;-75
2022/03/03 10:40:48;;;;;;;;;;;14.80;35.10;;;;;;5086349;28;44004;-75
2022/03/03 10:43:14;;;;;;;;;;;14.80;36.20;;;;;;5086181;28;42826;-74
2022/03/03 10:45:52;;;;;;;;;;;14.80;36.10;;;;;;5086078;27;43056;-75
2022/03/03 10:48:21;;;;;;;;;;;14.80;36.10;;;;;;5096892;27;43024;-75
2022/03/03 10:50:47;;;;;;;;;;;14.70;35.50;;;;;;5085432;28;43003;-74
2022/03/03 10:53:15;;;;;;;;;;;14.70;35.20;;;;;;5086174;27;42862;-75
2022/03/03 10:55:57;;;;;;;;;;;14.80;35.00;;;;;;5085236;27;43572;-74
2022/03/03 10:58:42;;;;;;;;;;;14.70;35.30;;;;;;5085207;28;42978;-75
2022/03/03 11:01:08;;;;;;;;;;;14.80;35.40;;;;;;5096138;27;43118;-74
2022/03/03 11:03:35;;;;;;;;;;;14.60;35.20;;;;;;5083392;28;42987;-74
2022/03/03 11:06:02;;;;;;;;;;;14.70;35.00;;;;;;5084977;28;43890;-74
2022/03/03 11:08:27;;;;;;;;;;;14.70;34.60;;;;;;5084876;28;43133;-74
2022/03/03 11:10:53;;;;;;;;;;;14.70;35.30;;;;;;5094604;27;44177;-75
2022/03/03 11:13:18;;;;;;;;;;;14.60;34.70;;;;;;5084968;27;42993;-74
2022/03/03 11:15:44;;;;;;;;;;;14.70;35.10;;;;;;5085001;28;42823;-74
2022/03/03 11:18:11;;;;;;;;;;;14.80;34.90;;;;;;5085536;28;42909;-74
2022/03/03 11:20:37;;;;;;;;;;;14.80;34.80;;;;;;5084270;28;43017;-74
2022/03/03 11:23:02;;;;;;;;;;;14.80;35.10;;;;;;5090622;27;42990;-75
2022/03/03 11:25:29;;;;;;;;;;;14.60;34.90;;;;;;5095791;27;43008;-74
2022/03/03 11:28:03;;;;;;;;;;;14.60;34.70;;;;;;5087038;27;42866;-75
2022/03/03 11:30:29;;;;;;;;;;;14.80;34.50;;;;;;5095597;27;43750;-74
2022/03/03 11:33:13;;;;;;;;;;;14.80;34.40;;;;;;5093849;27;43256;-75
2022/03/03 11:36:05;;;;;;;;;;;14.80;34.50;;;;;;5091840;27;43580;-74
2022/03/03 11:38:44;;;;;;;;;;;14.70;34.80;;;;;;5092485;27;43029;-74
2022/03/03 11:41:10;;;;;;;;;;;14.80;34.80;;;;;;5094563;27;43600;-75
2022/03/03 11:43:47;;;;;;;;;;;14.80;34.50;;;;;;5094555;27;43059;-74
2022/03/03 11:46:12;;;;;;;;;;;14.90;34.40;;;;;;5090887;27;43750;-74
2022/03/03 11:48:39;;;;;;;;;;;14.80;34.30;;;;;;5094295;27;43266;-76
2022/03/03 11:51:23;;;;;;;;;;;14.70;34.40;;;;;;5092003;27;42944;-75
2022/03/03 11:53:49;;;;;;;;;;;14.80;34.30;;;;;;5098547;27;43147;-75
2022/03/03 11:56:14;;;;;;;;;;;14.90;34.60;;;;;;5088730;27;42889;-74
2022/03/03 11:58:41;;;;;;;;;;;15.00;35.50;;;;;;5084845;28;42893;-74
2022/03/03 12:01:08;;;;;;;;;;;15.00;34.70;;;;;;5084571;28;42963;-74
2022/03/03 12:04:06;;;;;;;;;;;14.90;34.70;;;;;;5084789;28;42899;-74
2022/03/03 12:06:50;;;;;;;;;;;14.90;34.70;;;;;;5081096;27;43299;-74
2022/03/03 12:09:21;;;;;;;;;;;14.90;34.90;;;;;;5098539;27;42936;-75
2022/03/03 12:11:47;;;;;;;;;;;14.80;35.20;;;;;;5083773;28;43615;-74
2022/03/03 12:14:32;;;;;;;;;;;14.70;34.90;;;;;;5084325;27;43059;-74
2022/03/03 12:17:17;;;;;;;;;;;14.80;35.20;;;;;;5091029;27;43505;-74
2022/03/03 12:19:42;;;;;;;;;;;14.90;35.10;;;;;;5094765;27;43114;-74
2022/03/03 12:22:22;;;;;;;;;;;14.80;35.40;;;;;;5102997;27;44437;-74
2022/03/03 12:24:48;;;;;;;;;;;14.40;35.10;;;;;;5104660;27;42874;-74
2022/03/03 12:27:15;;;;;;;;;;;15.00;35.40;;;;;;5089235;27;43476;-74
2022/03/03 12:29:41;;;;;;;;;;;14.90;35.00;;;;;;5099740;27;42928;-76
2022/03/03 12:32:26;;;;;;;;;;;15.00;35.00;;;;;;5104133;27;42949;-74
2022/03/03 12:34:53;;;;;;;;;;;14.90;35.40;;;;;;5104009;27;42911;-75
2022/03/03 12:37:18;;;;;;;;;;;14.90;35.30;;;;;;5090420;27;43580;-74
2022/03/03 12:39:47;;;;;;;;;;;15.00;34.90;;;;;;5100969;27;42983;-76
2022/03/03 12:42:16;;;;;;;;;;;15.10;35.50;;;;;;5096650;27;44450;-76
2022/03/03 12:44:42;;;;;;;;;;;15.10;35.10;;;;;;5098036;27;43108;-75
2022/03/03 12:47:07;;;;;;;;;;;15.20;35.10;;;;;;5093866;27;42942;-76
2022/03/03 12:49:38;;;;;;;;;;;15.30;35.20;;;;;;5103342;27;43325;-76
2022/03/03 12:52:04;;;;;;;;;;;15.30;35.80;;;;;;5108080;27;43685;-75
2022/03/03 12:54:30;;;;;;;;;;;15.30;35.20;;;;;;5105690;27;43111;-76
2022/03/03 12:56:59;;;;;;;;;;;15.40;36.00;;;;;;5094769;27;42948;-76
2022/03/03 12:59:25;;;;;;;;;;;15.40;35.80;;;;;;5087704;28;42993;-76
2022/03/03 13:01:50;;;;;;;;;;;14.80;35.20;;;;;;5085120;28;42998;-76
2022/03/03 13:04:20;;;;;;;;;;;15.50;36.10;;;;;;5087394;27;42940;-77
2022/03/03 13:06:45;;;;;;;;;;;15.50;36.10;;;;;;5086936;28;43841;-76
2022/03/03 13:09:12;;;;;;;;;;;15.40;35.60;;;;;;5086839;28;42897;-76
2022/03/03 13:11:37;;;;;;;;;;;15.50;36.30;;;;;;5097013;27;43573;-76
2022/03/03 13:14:07;;;;;;;;;;;15.50;35.80;;;;;;5083428;27;44104;-75
2022/03/03 13:16:37;;;;;;;;;;;15.50;36.30;;;;;;5101614;27;43118;-76
2022/03/03 13:19:04;;;;;;;;;;;15.50;36.30;;;;;;5089077;27;42865;-75
2022/03/03 13:21:30;;;;;;;;;;;15.50;36.30;;;;;;5095475;27;43598;-77
2022/03/03 13:23:58;;;;;;;;;;;15.50;36.40;;;;;;5094474;27;43166;-76
2022/03/03 13:26:27;;;;;;;;;;;15.50;36.40;;;;;;5096189;27;42946;-76
2022/03/03 13:28:55;;;;;;;;;;;15.50;36.40;;;;;;5099072;27;43266;-77
2022/03/03 13:31:22;;;;;;;;;;;15.50;36.00;;;;;;5097278;27;42916;-75
2022/03/03 13:33:59;;;;;;;;;;;15.50;36.00;;;;;;5097401;27;43129;-77
2022/03/03 13:36:26;;;;;;;;;;;15.60;36.60;;;;;;5094770;27;43911;-75
2022/03/03 13:38:53;;;;;;;;;;;15.60;36.60;;;;;;5098015;27;43159;-76
2022/03/03 13:41:21;;;;;;;;;;;15.60;36.60;;;;;;5089793;27;43232;-77
2022/03/03 13:43:46;;;;;;;;;;;15.60;36.60;;;;;;5091340;27;42996;-76
2022/03/03 13:46:26;;;;;;;;;;;15.60;36.70;;;;;;5095025;27;43000;-78
2022/03/03 13:48:51;;;;;;;;;;;15.60;36.70;;;;;;5098317;27;42966;-76
2022/03/03 13:51:17;;;;;;;;;;;15.60;36.20;;;;;;5094700;27;43991;-76
2022/03/03 13:53:55;;;;;;;;;;;15.60;36.40;;;;;;5097142;27;42959;-76
2022/03/03 13:56:25;;;;;;;;;;;15.60;36.90;;;;;;5091633;27;43622;-77
2022/03/03 13:59:02;;;;;;;;;;;15.60;36.90;;;;;;5092289;27;42932;-76
2022/03/03 14:01:28;;;;;;;;;;;15.60;36.40;;;;;;5097022;27;43009;-76
2022/03/03 14:03:53;;;;;;;;;;;15.60;36.40;;;;;;5093551;27;43012;-76
2022/03/03 14:06:20;;;;;;;;;;;15.60;36.50;;;;;;5095889;27;43229;-76
2022/03/03 14:08:46;;;;;;;;;;;15.70;37.10;;;;;;5093571;27;42990;-76
2022/03/03 14:11:11;;;;;;;;;;;15.70;37.10;;;;;;5096165;27;43348;-76
2022/03/03 14:13:49;;;;;;;;;;;15.70;37.20;;;;;;5094314;27;43055;-76
2022/03/03 14:16:18;;;;;;;;;;;15.70;37.20;;;;;;5094223;27;43030;-77